Time;durP1;ratioP1;P1;durP2;ratioP2;P2;SDS_P1;SDS_P2;PMS_P1;PMS_P2;Temp;Humidity;BMP_temperature;BMP_pressure;BME280_temperature;BME280_humidity;BME280_pressure;Samples;Min_cycle;Max_cycle;Signal;HPM_P1;HPM_P2
2022/12/28 00:01:32;;;;;;;9.30;4.50;;;;;;;-0.12;100.00;97028.34;4923029;29;20482;-93
2022/12/28 00:04:01;;;;;;;10.93;4.90;;;;;;;-0.17;100.00;97021.69;4896102;29;21073;-93
2022/12/28 00:06:52;;;;;;;9.70;4.77;;;;;;;-0.20;100.00;97029.59;4904828;29;20471;-93
2022/12/28 00:09:18;;;;;;;7.83;4.17;;;;;;;-0.19;100.00;97029.53;4900580;29;20567;-93
2022/12/28 00:11:44;;;;;;;8.87;3.83;;;;;;;-0.08;100.00;97029.84;4906257;29;20487;-92
2022/12/28 00:14:10;;;;;;;10.57;4.47;;;;;;;-0.17;100.00;97026.88;4906088;29;20379;-93
2022/12/28 00:17:07;;;;;;;7.87;4.43;;;;;;;-0.24;100.00;97029.75;4907577;29;20460;-93
2022/12/28 00:19:33;;;;;;;11.20;4.27;;;;;;;-0.28;100.00;97028.22;4902926;29;20030;-93
2022/12/28 00:22:11;;;;;;;9.33;3.50;;;;;;;-0.28;100.00;97030.81;4927967;29;20456;-93
2022/12/28 00:24:38;;;;;;;7.60;3.80;;;;;;;-0.27;100.00;97024.75;4912989;29;20122;-93
2022/12/28 00:27:04;;;;;;;7.43;3.63;;;;;;;-0.19;100.00;97032.13;4912246;29;20456;-93
2022/12/28 00:29:30;;;;;;;8.30;3.60;;;;;;;-0.15;100.00;97012.13;4903624;29;20824;-93
2022/12/28 00:31:56;;;;;;;7.37;3.10;;;;;;;-0.09;100.00;97010.09;4920626;29;20046;-93
2022/12/28 00:34:28;;;;;;;6.03;2.90;;;;;;;0.00;100.00;97011.41;4901848;29;20028;-93
2022/12/28 00:36:55;;;;;;;7.17;2.70;;;;;;;0.02;100.00;97013.91;4907709;29;21004;-93
2022/12/28 00:39:48;;;;;;;7.13;2.87;;;;;;;-0.03;100.00;97009.78;4909622;29;21005;-93
2022/12/28 00:42:19;;;;;;;7.73;2.50;;;;;;;0.03;100.00;96998.28;4908094;29;20447;-93
2022/12/28 00:44:45;;;;;;;6.17;2.93;;;;;;;0.04;100.00;96989.63;4904015;29;20479;-93
2022/12/28 00:47:14;;;;;;;7.93;3.23;;;;;;;-0.02;100.00;97000.28;4907679;29;20535;-94
2022/12/28 00:49:40;;;;;;;10.17;3.50;;;;;;;-0.33;100.00;96985.44;4913409;29;20455;-93
2022/12/28 00:52:05;;;;;;;7.93;4.00;;;;;;;-0.32;100.00;96987.09;4904334;29;20039;-93
2022/12/28 00:54:32;;;;;;;7.50;4.37;;;;;;;-0.31;100.00;96991.34;4905898;29;20114;-93
2022/12/28 00:57:02;;;;;;;6.93;3.23;;;;;;;-0.34;100.00;96991.50;4911438;29;20050;-93
2022/12/28 00:59:28;;;;;;;6.20;2.73;;;;;;;-0.26;100.00;96982.47;4895727;29;21310;-93
2022/12/28 01:01:54;;;;;;;7.63;2.80;;;;;;;-0.17;100.00;96986.34;4895728;29;20589;-93
2022/12/28 01:04:20;;;;;;;6.30;2.87;;;;;;;-0.16;100.00;96984.63;4908644;29;20039;-94
2022/12/28 01:06:46;;;;;;;6.73;2.70;;;;;;;-0.17;100.00;96982.91;4922204;29;20459;-93
2022/12/28 01:09:12;;;;;;;6.23;2.77;;;;;;;-0.15;100.00;96981.09;4904845;29;20508;-94
2022/12/28 01:11:38;;;;;;;6.47;2.87;;;;;;;-0.02;100.00;96982.19;4907581;29;20856;-92
2022/12/28 01:14:32;;;;;;;6.60;2.37;;;;;;;0.09;100.00;96986.81;4911840;29;20121;-93
2022/12/28 01:16:59;;;;;;;6.27;2.50;;;;;;;0.17;100.00;96998.47;4916392;28;20038;-93
2022/12/28 01:19:27;;;;;;;8.23;3.40;;;;;;;0.17;100.00;96993.28;4924013;29;20487;-94
2022/12/28 01:21:53;;;;;;;7.50;2.53;;;;;;;0.28;100.00;96984.97;4922808;29;20035;-94
2022/12/28 01:24:44;;;;;;;7.50;2.70;;;;;;;0.26;100.00;96976.44;4905343;29;20475;-95
2022/12/28 01:27:10;;;;;;;8.50;2.97;;;;;;;0.19;100.00;96978.50;4906298;29;21040;-94
2022/12/28 08:31:48;;;;;;;6.17;1.53;;;;;;;4.20;100.00;96592.34;4915024;29;20074;-88
2022/12/28 08:34:25;;;;;;;4.97;1.50;;;;;;;4.37;100.00;96583.31;4882228;29;20032;-88
2022/12/28 08:36:51;;;;;;;3.57;1.00;;;;;;;4.43;100.00;96582.88;4915150;29;20095;-88
2022/12/28 08:39:19;;;;;;;3.63;1.23;;;;;;;4.43;100.00;96582.88;4889961;29;20095;-87
2022/12/28 08:41:45;;;;;;;3.70;1.53;;;;;;;4.49;100.00;96572.00;4890030;29;20083;-88
2022/12/28 08:44:11;;;;;;;4.17;1.70;;;;;;;4.60;100.00;96562.56;4889165;29;20430;-88
2022/12/28 08:46:39;;;;;;;4.67;1.33;;;;;;;4.69;100.00;96565.31;4898311;29;20043;-88
2022/12/28 08:49:04;;;;;;;4.97;1.90;;;;;;;4.74;100.00;96554.53;4892679;29;20028;-89
2022/12/28 08:51:34;;;;;;;5.97;2.53;;;;;;;4.87;100.00;96562.28;4890109;29;20036;-86
2022/12/28 08:54:00;;;;;;;3.70;1.60;;;;;;;4.92;100.00;96557.53;4885721;29;20047;-89
2022/12/28 08:56:29;;;;;;;2.90;1.20;;;;;;;4.91;100.00;96558.47;4883499;29;20040;-88
2022/12/28 08:58:56;;;;;;;3.33;1.50;;;;;;;4.95;100.00;96560.72;4884098;29;20044;-88
2022/12/28 09:01:28;;;;;;;4.97;1.87;;;;;;;4.85;100.00;96564.16;4897569;29;20032;-88
2022/12/28 09:03:59;;;;;;;5.23;2.00;;;;;;;4.67;100.00;96559.38;4897133;29;20044;-88
2022/12/28 09:06:33;;;;;;;7.53;3.37;;;;;;;4.66;100.00;96562.94;4897805;29;20530;-88
2022/12/28 09:09:00;;;;;;;6.03;2.77;;;;;;;4.66;100.00;96564.69;4881605;29;20043;-88
2022/12/28 09:11:26;;;;;;;8.33;4.07;;;;;;;4.66;100.00;96565.56;4900565;29;20050;-87
2022/12/28 09:13:52;;;;;;;7.90;3.73;;;;;;;4.68;100.00;96563.63;4900115;29;20561;-88
2022/12/28 09:16:25;;;;;;;9.97;3.73;;;;;;;4.75;100.00;96571.81;4885829;29;20032;-88
2022/12/28 09:18:57;;;;;;;3.25;1.30;;;;;;;4.97;100.00;96566.66;4890793;29;20043;-89
2022/12/28 09:21:25;;;;;;;2.97;1.10;;;;;;;5.17;100.00;96557.31;4904900;29;20040;-89
2022/12/28 09:23:51;;;;;;;3.60;1.07;;;;;;;5.28;100.00;96560.88;4870205;29;20040;-88
2022/12/28 09:26:24;;;;;;;4.87;1.30;;;;;;;5.37;100.00;96553.19;4879903;29;20036;-88
2022/12/28 09:28:52;;;;;;;1.73;0.83;;;;;;;5.48;100.00;96543.69;4923108;29;20039;-88
2022/12/28 09:31:20;;;;;;;2.83;0.90;;;;;;;5.56;100.00;96546.50;4877226;29;20036;-88
2022/12/28 09:33:57;;;;;;;3.33;1.30;;;;;;;5.48;100.00;96544.50;4871522;29;20037;-88
2022/12/28 09:36:26;;;;;;;7.23;3.00;;;;;;;5.58;100.00;96545.44;4903723;29;20389;-88
2022/12/28 09:38:52;;;;;;;15.57;7.63;;;;;;;5.57;100.00;96556.03;4899433;29;20127;-87
2022/12/28 09:41:27;;;;;;;10.33;4.73;;;;;;;5.62;100.00;96546.84;4887889;29;20409;-88
2022/12/28 09:44:32;;;;;;;8.97;4.60;;;;;;;5.66;100.00;96544.84;4884662;29;20040;-88
2022/12/28 09:47:20;;;;;;;5.30;2.30;;;;;;;5.74;100.00;96545.06;4821670;29;20084;-88
2022/12/28 09:50:10;;;;;;;4.80;2.00;;;;;;;5.81;100.00;96554.06;4893921;29;20063;-88
2022/12/28 09:52:42;;;;;;;4.50;1.50;;;;;;;5.89;100.00;96551.66;4915608;29;20051;-88
2022/12/28 09:55:16;;;;;;;4.03;1.40;;;;;;;5.94;100.00;96547.91;4907416;29;20039;-88
2022/12/28 09:57:47;;;;;;;2.63;1.10;;;;;;;6.06;100.00;96549.53;4896507;29;20100;-88
2022/12/28 10:00:27;;;;;;;6.20;2.23;;;;;;;6.11;100.00;96536.94;4888645;29;20031;-88
2022/12/28 10:03:09;;;;;;;5.93;1.90;;;;;;;6.22;100.00;96534.28;4883840;29;20508;-88
2022/12/28 10:05:35;;;;;;;3.30;1.37;;;;;;;6.37;100.00;96529.56;4912005;29;20039;-88
2022/12/28 10:08:01;;;;;;;3.47;1.53;;;;;;;6.40;100.00;96526.72;4894293;29;20028;-88
2022/12/28 10:10:28;;;;;;;3.03;1.27;;;;;;;6.49;100.00;96517.28;4898962;29;20395;-88
2022/12/28 10:12:54;;;;;;;2.87;1.20;;;;;;;6.70;100.00;96512.06;4902845;29;21060;-88
2022/12/28 10:15:25;;;;;;;3.60;1.20;;;;;;;6.93;100.00;96507.50;4891386;29;20039;-88
2022/12/28 10:17:50;;;;;;;2.07;0.83;;;;;;;6.89;100.00;96495.66;4899410;29;20483;-88
2022/12/28 10:20:21;;;;;;;3.03;1.30;;;;;;;6.93;100.00;96502.28;4891998;29;20039;-89
2022/12/28 10:22:55;;;;;;;4.53;1.13;;;;;;;7.32;100.00;96501.50;4907312;29;20046;-89
2022/12/28 10:25:31;;;;;;;4.13;1.02;;;;;;;7.39;100.00;96491.34;4912854;29;20060;-87
2022/12/28 10:27:59;;;;;;;3.23;1.30;;;;;;;7.69;100.00;96484.38;4896860;29;20115;-87
2022/12/28 10:30:26;;;;;;;3.93;1.70;;;;;;;7.53;100.00;96479.66;4891467;29;20036;-89
2022/12/28 10:32:55;;;;;;;6.10;3.07;;;;;;;7.16;100.00;96482.03;4879379;29;20039;-88
2022/12/28 10:35:28;;;;;;;7.90;2.80;;;;;;;7.39;100.00;96482.66;4885518;29;20050;-88
2022/12/28 10:38:02;;;;;;;6.05;2.70;;;;;;;7.81;100.00;96480.66;4896932;29;20042;-87
2022/12/28 10:40:38;;;;;;;4.70;3.10;;;;;;;7.99;100.00;96478.22;4886357;29;20630;-88
2022/12/28 10:43:04;;;;;;;7.70;2.97;;;;;;;7.98;100.00;96474.78;4896405;29;20027;-87
2022/12/28 10:45:37;;;;;;;8.53;4.20;;;;;;;7.91;100.00;96478.88;4899731;29;20071;-87
2022/12/28 10:48:27;;;;;;;7.90;2.90;;;;;;;7.85;100.00;96473.38;4901699;29;20040;-87
2022/12/28 10:51:18;;;;;;;5.50;2.30;;;;;;;7.92;100.00;96464.84;4879010;29;20043;-87
2022/12/28 10:53:55;;;;;;;3.73;1.50;;;;;;;7.82;100.00;96458.78;4896587;29;20492;-87
2022/12/28 10:56:47;;;;;;;2.57;1.10;;;;;;;8.05;100.00;96459.34;4897153;29;20099;-87
2022/12/28 10:59:24;;;;;;;4.20;0.90;;;;;;;8.13;100.00;96454.22;4897088;29;20035;-85
2022/12/28 11:02:19;;;;;;;3.83;0.90;;;;;;;8.14;100.00;96437.53;4886392;29;20047;-85
2022/12/28 11:04:58;;;;;;;4.10;1.40;;;;;;;8.50;100.00;96433.38;4893513;29;20050;-85
2022/12/28 11:07:30;;;;;;;4.60;2.70;;;;;;;8.78;100.00;96425.56;4888070;29;20040;-85
2022/12/28 11:10:25;;;;;;;4.80;1.85;;;;;;;9.26;100.00;96419.31;4887486;29;20051;-85
2022/12/28 11:12:54;;;;;;;4.40;1.20;;;;;;;9.54;100.00;96416.66;4896268;29;20099;-84
2022/12/28 11:15:26;;;;;;;6.07;3.00;;;;;;;9.45;100.00;96410.47;4920815;29;20087;-85
2022/12/28 11:18:20;;;;;;;5.47;2.70;;;;;;;9.62;100.00;96421.97;4900309;29;20035;-85
2022/12/28 11:20:52;;;;;;;7.47;3.13;;;;;;;9.24;100.00;96409.91;4905296;29;20171;-86
2022/12/28 11:23:30;;;;;;;1.90;0.80;;;;;;;9.43;100.00;96402.75;4896416;29;20236;-86
2022/12/28 11:25:59;;;;;;;2.97;0.90;;;;;;;9.66;100.00;96400.53;4881636;29;20044;-85
2022/12/28 11:28:28;;;;;;;3.93;0.80;;;;;;;9.78;100.00;96402.94;4884854;29;20130;-88
2022/12/28 11:30:56;;;;;;;3.20;0.80;;;;;;;9.50;100.00;96404.78;4910964;29;20036;-90
2022/12/28 11:33:43;;;;;;;3.30;0.80;;;;;;;9.44;100.00;96395.69;4910922;29;20046;-89
2022/12/28 11:36:23;;;;;;;3.80;1.00;;;;;;;9.28;100.00;96400.78;4914540;29;20036;-90
2022/12/28 11:38:51;;;;;;;2.40;1.20;;;;;;;9.10;100.00;96396.31;4885374;29;20171;-90
2022/12/28 11:41:23;;;;;;;7.43;2.33;;;;;;;9.37;100.00;96398.09;4900854;29;20055;-88
2022/12/28 11:44:01;;;;;;;4.90;1.80;;;;;;;9.11;100.00;96390.09;4888906;29;20037;-89
2022/12/28 11:46:27;;;;;;;2.73;1.20;;;;;;;9.33;100.00;96390.69;4875927;29;20038;-87
2022/12/28 11:49:00;;;;;;;3.43;1.50;;;;;;;9.37;100.00;96389.41;4903450;29;20040;-88
2022/12/28 11:51:31;;;;;;;2.58;0.90;;;;;;;9.46;100.00;96388.53;4881932;29;20565;-89
2022/12/28 11:53:58;;;;;;;4.70;1.10;;;;;;;9.14;100.00;96379.31;4898382;29;20040;-88
2022/12/28 11:56:44;;;;;;;2.13;1.10;;;;;;;9.01;100.00;96380.63;4896543;29;20040;-87
2022/12/28 11:59:42;;;;;;;4.33;1.40;;;;;;;8.82;100.00;96378.91;4905048;29;20052;-88
2022/12/28 12:02:28;;;;;;;6.23;2.40;;;;;;;8.85;100.00;96374.22;4881025;29;20036;-88
2022/12/28 12:05:38;;;;;;;5.57;1.87;;;;;;;9.62;100.00;96362.44;4893260;29;20040;-87
2022/12/28 12:08:13;;;;;;;3.50;1.93;;;;;;;9.86;100.00;96358.38;4887830;29;20039;-88
2022/12/28 12:10:41;;;;;;;5.00;1.60;;;;;;;10.13;100.00;96347.72;4903003;29;20043;-88
2022/12/28 12:13:26;;;;;;;3.57;1.37;;;;;;;10.23;100.00;96346.78;4894868;29;20028;-88
2022/12/28 12:16:07;;;;;;;3.73;1.10;;;;;;;10.03;100.00;96346.19;4891430;29;20037;-88
2022/12/28 12:18:47;;;;;;;2.70;1.33;;;;;;;9.99;100.00;96337.75;4900041;29;20127;-88
2022/12/28 12:21:39;;;;;;;3.40;1.40;;;;;;;9.43;100.00;96331.88;4891934;29;20039;-88
2022/12/28 12:27:11;;;;;;;3.53;1.30;;;;;;;9.54;100.00;96322.13;4919329;29;20063;-88
2022/12/28 12:29:44;;;;;;;3.43;1.10;;;;;;;9.40;100.00;96328.75;4892780;29;20078;-88
2022/12/28 12:32:31;;;;;;;4.90;1.13;;;;;;;9.34;100.00;96318.84;4888278;29;20064;-88
2022/12/28 12:35:29;;;;;;;4.33;1.17;;;;;;;9.34;100.00;96314.41;4903644;29;20395;-88
2022/12/28 12:38:03;;;;;;;2.93;1.00;;;;;;;9.37;100.00;96311.47;4905064;29;20035;-88
2022/12/28 12:40:51;;;;;;;3.00;1.00;;;;;;;9.13;100.00;96303.38;4882843;29;20491;-88
2022/12/28 12:43:44;;;;;;;2.20;0.90;;;;;;;9.18;100.00;96307.19;4898853;29;20059;-89
2022/12/28 12:46:24;;;;;;;1.80;1.10;;;;;;;8.92;100.00;96298.38;4873285;29;20059;-88
2022/12/28 12:48:58;;;;;;;3.47;1.10;;;;;;;8.94;100.00;96304.31;4884590;29;20076;-88
2022/12/28 12:51:58;;;;;;;4.43;1.10;;;;;;;8.76;100.00;96296.41;4899115;29;20487;-87
2022/12/28 12:54:42;;;;;;;3.53;1.00;;;;;;;8.65;100.00;96304.47;4895297;29;20036;-88
2022/12/28 12:57:45;;;;;;;3.70;0.90;;;;;;;8.48;100.00;96303.44;4901135;29;20028;-88
2022/12/28 13:00:20;;;;;;;3.77;0.90;;;;;;;8.52;100.00;96299.59;4896442;29;20418;-88
2022/12/28 13:03:08;;;;;;;2.97;1.20;;;;;;;8.42;100.00;96298.78;4890744;29;20040;-88
2022/12/28 13:05:39;;;;;;;3.33;1.10;;;;;;;8.47;100.00;96296.56;4887447;29;20044;-88
2022/12/28 13:08:20;;;;;;;2.80;1.03;;;;;;;8.73;100.00;96289.66;4900043;29;20039;-88
2022/12/28 13:10:54;;;;;;;5.03;2.20;;;;;;;8.96;100.00;96278.78;4901218;29;20469;-89
2022/12/28 13:13:35;;;;;;;3.40;1.13;;;;;;;8.78;100.00;96283.97;4910436;29;20028;-87
2022/12/28 13:16:10;;;;;;;2.60;0.70;;;;;;;8.60;100.00;96275.25;4894978;29;20483;-88
2022/12/28 13:18:37;;;;;;;1.53;0.60;;;;;;;8.52;100.00;96273.38;4892891;29;20087;-88
2022/12/28 13:21:06;;;;;;;6.40;1.20;;;;;;;8.47;100.00;96270.34;4897200;29;20025;-88
2022/12/28 13:23:44;;;;;;;2.00;0.83;;;;;;;8.48;100.00;96274.59;4882072;29;20048;-88
2022/12/28 13:26:25;;;;;;;2.23;0.90;;;;;;;8.34;100.00;96268.00;4880818;29;20032;-88
2022/12/28 13:29:07;;;;;;;1.67;0.80;;;;;;;8.27;100.00;96265.16;4895597;29;20028;-87
2022/12/28 13:31:37;;;;;;;4.77;0.93;;;;;;;8.25;100.00;96263.66;4881969;29;20032;-87
2022/12/28 13:34:24;;;;;;;4.30;1.00;;;;;;;8.14;100.00;96269.06;4898237;29;20036;-87
2022/12/28 13:36:52;;;;;;;3.27;1.27;;;;;;;8.20;100.00;96269.31;4890022;29;20047;-87
2022/12/28 13:39:19;;;;;;;3.20;0.80;;;;;;;8.13;100.00;96263.00;4884175;29;20119;-86
2022/12/28 13:42:10;;;;;;;5.60;2.10;;;;;;;8.03;100.00;96262.22;4897323;29;20037;-87
2022/12/28 13:44:59;;;;;;;1.63;0.80;;;;;;;8.04;100.00;96274.31;4895142;29;20036;-86
2022/12/28 13:47:46;;;;;;;1.97;0.90;;;;;;;8.01;100.00;96266.75;4887270;29;20195;-86
2022/12/28 13:50:19;;;;;;;2.67;1.13;;;;;;;7.99;100.00;96272.16;4881733;29;20078;-86
2022/12/28 13:52:57;;;;;;;2.63;1.20;;;;;;;8.02;100.00;96269.25;4899152;29;20068;-84
2022/12/28 13:55:35;;;;;;;3.27;1.17;;;;;;;8.05;100.00;96273.38;4897574;29;20044;-84
2022/12/28 13:58:08;;;;;;;4.13;0.90;;;;;;;7.99;100.00;96260.84;4881331;29;20506;-83
2022/12/28 14:00:55;;;;;;;2.35;1.08;;;;;;;7.94;100.00;96257.81;4894333;29;20035;-84
2022/12/28 14:03:24;;;;;;;3.00;1.00;;;;;;;7.95;100.00;96256.88;4907656;29;20187;-87
2022/12/28 14:05:54;;;;;;;2.77;1.20;;;;;;;7.90;100.00;96257.28;4896598;29;20040;-86
2022/12/28 14:08:38;;;;;;;3.80;0.90;;;;;;;7.86;100.00;96260.34;4889266;29;20039;-86
2022/12/28 14:11:11;;;;;;;2.40;1.07;;;;;;;7.80;100.00;96259.09;4915079;29;20092;-86
2022/12/28 14:13:39;;;;;;;1.43;0.60;;;;;;;7.85;100.00;96242.97;4899130;29;20399;-86
2022/12/28 14:16:11;;;;;;;4.07;1.13;;;;;;;7.82;100.00;96244.09;4883744;29;20040;-86
2022/12/28 14:18:41;;;;;;;2.37;1.03;;;;;;;7.91;100.00;96247.63;4897689;29;20087;-86
2022/12/28 14:21:08;;;;;;;3.77;1.07;;;;;;;7.85;100.00;96242.97;4892605;29;20040;-86
2022/12/28 14:23:38;;;;;;;1.57;0.70;;;;;;;7.82;100.00;96251.94;4899464;29;20032;-87
2022/12/28 14:26:07;;;;;;;2.90;0.80;;;;;;;7.79;100.00;96247.00;4884839;29;20040;-86
2022/12/28 14:28:44;;;;;;;3.23;1.10;;;;;;;7.76;100.00;96250.69;4889675;29;20031;-88
2022/12/28 14:31:33;;;;;;;3.80;1.53;;;;;;;7.78;100.00;96238.31;4881186;29;20099;-86
2022/12/28 14:34:04;;;;;;;2.10;1.00;;;;;;;7.76;100.00;96245.47;4895400;29;20063;-87
2022/12/28 14:36:57;;;;;;;6.10;1.70;;;;;;;7.69;100.00;96246.19;4888987;29;20365;-86
2022/12/28 14:39:43;;;;;;;6.83;1.53;;;;;;;7.59;100.00;96248.00;4912494;29;20924;-85
2022/12/28 14:42:23;;;;;;;6.27;2.37;;;;;;;7.43;100.00;96241.53;4904651;29;20521;-84
2022/12/28 14:44:53;;;;;;;5.67;2.33;;;;;;;7.36;100.00;96242.22;4886544;29;20032;-84
2022/12/28 14:47:49;;;;;;;4.20;1.97;;;;;;;7.31;100.00;96240.88;4886302;29;20110;-85
2022/12/28 14:50:24;;;;;;;3.40;1.00;;;;;;;7.28;100.00;96240.31;4894673;29;20126;-85
2022/12/28 14:53:09;;;;;;;6.37;2.33;;;;;;;7.20;100.00;96233.13;4888132;29;20036;-84
2022/12/28 14:56:04;;;;;;;4.43;2.17;;;;;;;7.11;100.00;96234.00;4903844;29;20043;-86
2022/12/28 14:58:57;;;;;;;4.37;1.70;;;;;;;6.94;100.00;96232.03;4905695;29;20091;-87
2022/12/28 15:01:39;;;;;;;5.00;1.60;;;;;;;6.81;100.00;96235.75;4882584;29;20036;-86
2022/12/28 15:04:05;;;;;;;5.60;2.00;;;;;;;6.68;100.00;96232.56;4882732;29;20036;-86
2022/12/28 15:06:52;;;;;;;3.23;1.53;;;;;;;6.52;100.00;96234.88;4880263;29;20088;-86
2022/12/28 15:09:24;;;;;;;3.77;1.47;;;;;;;6.44;100.00;96234.69;4897622;29;20032;-87
2022/12/28 15:12:11;;;;;;;6.85;2.03;;;;;;;6.27;100.00;96239.63;4885631;29;20062;-86
2022/12/28 15:14:37;;;;;;;3.57;1.77;;;;;;;6.11;100.00;96228.84;4892866;29;20044;-86
2022/12/28 15:17:03;;;;;;;6.23;1.70;;;;;;;5.98;100.00;96223.84;4893874;29;20055;-86
2022/12/28 15:19:28;;;;;;;6.00;2.43;;;;;;;5.90;100.00;96229.69;4898854;29;20372;-86
2022/12/28 15:21:54;;;;;;;4.80;2.13;;;;;;;5.83;100.00;96223.31;4884456;29;20562;-86
2022/12/28 15:24:34;;;;;;;6.63;2.47;;;;;;;5.79;100.00;96223.72;4891183;29;20032;-87
2022/12/28 15:27:02;;;;;;;7.20;2.40;;;;;;;5.73;100.00;96219.00;4897085;29;20047;-87
2022/12/28 15:29:53;;;;;;;8.23;2.70;;;;;;;5.66;100.00;96232.56;4885805;29;20028;-87
2022/12/28 15:32:23;;;;;;;9.50;2.83;;;;;;;5.66;100.00;96232.56;4888006;29;20031;-86
2022/12/28 15:34:48;;;;;;;8.27;3.10;;;;;;;5.61;100.00;96236.53;4885710;29;20040;-87
2022/12/28 15:37:14;;;;;;;6.90;3.27;;;;;;;5.61;100.00;96237.34;4902898;29;20067;-86
2022/12/28 15:39:48;;;;;;;9.17;3.53;;;;;;;5.60;100.00;96224.44;4886150;29;20039;-87
2022/12/28 15:42:13;;;;;;;7.63;2.97;;;;;;;5.58;100.00;96214.13;4900848;29;20028;-86
2022/12/28 15:44:39;;;;;;;7.27;3.20;;;;;;;5.58;100.00;96218.53;4886870;29;20642;-87
2022/12/28 15:47:05;;;;;;;5.70;2.63;;;;;;;5.54;100.00;96215.34;4889608;29;20071;-90
2022/12/28 15:49:36;;;;;;;6.43;2.73;;;;;;;5.46;100.00;96216.94;4907521;29;20076;-89
2022/12/28 15:52:10;;;;;;;11.70;6.63;;;;;;;5.43;100.00;96213.66;4886173;29;20695;-89
2022/12/28 15:54:36;;;;;;;5.93;2.80;;;;;;;5.43;100.00;96210.19;4902053;29;20032;-89
2022/12/28 15:57:01;;;;;;;4.23;1.83;;;;;;;5.38;100.00;96223.63;4909084;29;20043;-89
2022/12/28 15:59:27;;;;;;;5.70;2.30;;;;;;;5.46;100.00;96216.94;4890296;29;20111;-88
2022/12/28 16:01:55;;;;;;;6.53;2.53;;;;;;;5.70;100.00;96216.66;4892798;29;20082;-87
2022/12/28 16:04:37;;;;;;;6.73;2.33;;;;;;;5.49;100.00;96214.91;4905609;29;20048;-90
2022/12/28 16:07:29;;;;;;;7.13;2.20;;;;;;;5.43;100.00;96221.47;4902742;29;20115;-90
2022/12/28 17:32:35;;;;;;;5.27;2.73;;;;;;;4.67;100.00;96144.38;4950086;29;20067;-92
2022/12/28 17:35:23;;;;;;;4.93;2.00;;;;;;;4.72;100.00;96139.59;4908130;29;20047;-91
2022/12/28 17:37:54;;;;;;;5.67;2.50;;;;;;;4.75;100.00;96139.34;4917222;29;20547;-88
2022/12/28 17:41:07;;;;;;;6.77;1.93;;;;;;;4.77;100.00;96142.69;4919979;29;20035;-89
2022/12/28 17:44:08;;;;;;;5.32;2.42;;;;;;;4.81;100.00;96138.88;4900195;29;20063;-94
2022/12/28 17:46:45;;;;;;;8.03;3.23;;;;;;;4.84;100.00;96138.63;4928809;29;20070;-92
2022/12/28 17:49:13;;;;;;;5.40;2.90;;;;;;;4.81;100.00;96138.88;4917013;29;20126;-90
2022/12/28 17:51:40;;;;;;;4.80;2.60;;;;;;;4.78;100.00;96144.31;4911085;29;20125;-90
2022/12/28 17:54:14;;;;;;;7.77;3.63;;;;;;;4.78;100.00;96138.28;4921242;29;20041;-90
2022/12/28 17:57:05;;;;;;;7.17;3.10;;;;;;;4.81;100.00;96144.06;4887792;29;20035;-94
2022/12/28 17:59:37;;;;;;;6.23;2.83;;;;;;;4.78;100.00;96152.13;4905702;29;20038;-93
2022/12/28 18:02:22;;;;;;;5.07;2.42;;;;;;;4.76;100.00;96156.63;4924536;29;20043;-92
2022/12/28 18:04:48;;;;;;;7.90;3.00;;;;;;;4.72;100.00;96145.63;4950259;28;20063;-91
2022/12/28 18:11:23;;;;;;;7.73;2.83;;;;;;;4.75;100.00;96141.13;4942676;29;20039;-94
2022/12/28 18:14:27;;;;;;;15.63;7.87;;;;;;;4.81;100.00;96135.44;4916639;29;20050;-95
2022/12/28 18:17:28;;;;;;;8.07;3.67;;;;;;;4.68;100.00;96133.00;4911356;29;20273;-92
2022/12/28 18:21:17;;;;;;;6.97;3.20;;;;;;;4.61;100.00;96134.47;4884680;29;20124;-96
2022/12/28 18:23:52;;;;;;;6.83;3.10;;;;;;;4.47;100.00;96114.75;4897980;29;20040;-92
2022/12/28 18:31:03;;;;;;;7.17;3.60;;;;;;;4.40;100.00;96111.81;4881052;29;20109;-93
2022/12/28 18:34:28;;;;;;;6.93;3.57;;;;;;;4.34;100.00;96109.69;4783849;30;20055;-92
2022/12/28 18:41:39;;;;;;;7.20;3.30;;;;;;;4.52;100.00;96103.94;4784794;30;20103;-95
2022/12/28 22:36:26;;;;;;;9.60;4.93;;;;;;;5.78;100.00;95868.03;4951394;28;20362;-87
